x

Nantucket Sound (44020) Wave Buoy

3:50pm - Fri 24th Feb 2017 All times are EST. -5 hours from GMT.

  • Sig Wave height 1.0ft
  • Swell Direction
  • Peak Period 11s
  • Average Period 3s
  • Wind
    16mph, 18mph gusts
  • Sea Temp 40°f
  • Air Temp 46°f
  • Sea Pressure 1013.8mb
  • Nantucket Sound
  • Nantucket Sound

More Historic Weather Station data

Upgrade to MSW Pro to gain access to the past 30 days of data for over 8000 Wavebouys and Weather Stations around the globe.

Join Pro

Comparision Forecast

View Surf forecast
   
Fri 02/24 3:50pm 1ft 11s 3s 16 18 mph 1013.8mb 40f 46f
2:50pm 0.7ft  -  4s 11 13 mph 1014.2mb 40f 45f
1:50pm 0.7ft  -  4s 7 9 mph 1014.4mb 40f 44f
12:50pm 1ft 12s 4s 9 11 mph 1015.1mb 40f 44f
11:50am 1ft 10s 4s 9
mph
1015.9mb 40f 44f
10:50am 1.3ft 9s 4s 7
mph
1016.1mb 40f 43f
9:50am 1.3ft 10s 4s 13 16 mph 1015.9mb 39f 44f
8:50am 1.3ft 9s 4s 11 13 mph 1015.8mb 39f 45f
7:50am 1ft 10s 4s 11 13 mph 1015.6mb 39f 45f
6:50am 1ft 3s 3s 11
mph
1015.4mb 39f 44f
5:50am 1ft 3s 3s 11
mph
1015.2mb 39f 43f
4:50am 1.3ft 3s 3s 9
mph
1014.9mb 40f 42f
3:50am 2ft 3s 3s 16 18 mph 1013.8mb 40f 44f
2:50am 1.3ft 11s 3s 16
mph
1013.9mb 39f 44f
1:50am 1.3ft 3s 3s 16 18 mph 1013.7mb 39f 43f
12:50am 1.6ft 3s 3s 16 18 mph 1013.6mb 39f 43f
Thu 02/23 11:50pm 1.6ft 3s 4s 16 20 mph 1013.2mb 39f 44f
10:50pm 1.6ft 11s 4s 13 18 mph 1013.4mb 39f 44f
9:50pm 1.3ft 11s 4s 13
mph
1013.1mb 39f 43f
8:50pm 1.3ft 10s 4s 13
mph
1013.1mb 39f 43f
7:50pm 1.3ft 3s 3s 13 16 mph 1012.5mb 39f 43f
6:50pm 1.3ft 3s 3s 18 20 mph 1011.8mb 39f 44f
5:50pm 1.6ft 3s 3s 18 20 mph 1010.9mb 40f 44f
4:50pm 1.3ft 3s 3s 20 22 mph 1010.3mb 40f 44f
3:50pm 1.3ft 3s 3s 16 18 mph 1010.2mb 40f 43f
2:50pm 1ft 11s 4s 11 13 mph 1010.4mb 40f 43f
1:50pm 1ft 11s 4s 7 9 mph 1010.8mb 40f 42f
12:50pm 1.3ft 3s 3s 13 18 mph 1011.2mb 39f 42f
11:50am 1.3ft 11s 4s 13 18 mph 1012.3mb 39f 42f
10:50am 1ft 10s 4s 11 13 mph 1012.8mb 39f 42f
9:50am 1.3ft 8s 5s 9
mph
1013mb 39f 41f
8:50am 1ft 9s 5s 11
mph
1013mb 39f 40f
7:50am 1ft 9s 5s 9 11 mph 1012.9mb 39f 40f
6:50am 0.7ft  -  6s 9
mph
1012.4mb 39f 40f
5:50am 0.7ft  -  4s 9
mph
1012.5mb 39f 41f
4:50am 0.7ft  -  4s 7
mph
1012.7mb 39f 41f
3:50am 0.7ft  -  5s 11
mph
1012.5mb 39f 41f
2:50am 1ft 10s 5s 9
mph
1012.4mb 39f 41f
1:50am 1ft 11s 5s 9 11 mph 1012.4mb 39f 41f
12:50am 1ft 10s 5s 9
mph
1012.8mb 39f 41f
Wed 02/22 11:50pm 1ft 10s 5s 11 13 mph 1012.7mb 39f 42f
10:50pm 1ft 10s 4s 9 11 mph 1013mb 39f 42f
9:50pm 1.3ft 10s 5s 9 11 mph 1013.5mb 39f 41f
8:50pm 1ft 8s 5s 9 11 mph 1013.4mb 39f 41f
7:50pm 1ft 10s 5s 9 11 mph 1013.4mb 39f 40f
6:50pm 0.7ft  -  4s 9 11 mph 1013.4mb 39f 40f
5:50pm 0.7ft  -  3s 11
mph
1013.5mb 39f 41f
4:50pm 0.7ft  -  3s 11 13 mph 1013mb 39f 41f
3:50pm 1ft 3s 3s 9 11 mph 1012.9mb 39f 41f
2:50pm 1.3ft 3s 3s 11 13 mph 1013.1mb 39f 41f
1:50pm 1.3ft 2s 3s 18 20 mph 1013.3mb 40f 42f
12:50pm 1ft 3s 3s 13 16 mph 1014.1mb 39f 41f
11:50am 1ft 3s 3s 13 16 mph 1015mb 39f 41f
10:50am 1.3ft 3s 3s 11 13 mph 1016.1mb 39f 41f
9:50am 1.3ft 3s 3s 11 16 mph 1016.6mb 39f 41f
8:50am 1.3ft 3s 3s 13
mph
1017.4mb 39f 41f
7:50am 1.3ft 8s 4s 13 16 mph 1017.7mb 39f 40f
5:50am 0.7ft  -  4s 11 13 mph 1018.1mb 39f 39f
4:50am 0.7ft  -  4s 9
mph
1018.4mb 39f 39f
3:50am 0.7ft  -  4s 9 11 mph 1018.8mb 39f 39f
2:50am 0.7ft  -  4s 9 11 mph 1019.1mb 38f 39f
1:50am 1ft 8s 4s 9 11 mph 1019.9mb 38f 39f
12:50am 1ft 7s 4s 11 13 mph 1020.5mb 39f 39f
Tue 02/21 10:50pm 1ft 7s 4s 11
mph
1021.8mb 38f 38f
9:50pm 1.3ft 6s 4s 9
mph
1022.9mb 39f 38f
8:50pm 1.3ft 7s 4s 7 9 mph 1023.1mb 39f 38f
7:50pm 1.3ft 7s 5s 7 9 mph 1023.4mb 39f 38f
6:50pm 1ft 7s 5s 7 9 mph 1024.1mb 39f 38f
5:50pm 0.7ft  -  5s 4
mph
1024.5mb 39f 38f
4:50pm 0.7ft  -  4s 4 7 mph 1024.4mb 39f 38f
3:50pm 0.7ft  -  4s 7
mph
1024.5mb 39f 38f
2:50pm 1ft 7s 4s 4 7 mph 1025.2mb 39f 38f
1:50pm 1ft 7s 4s 4
mph
1025.8mb 39f 39f
12:50pm 1ft 7s 4s 7 9 mph 1026.3mb 40f 39f
11:50am 1ft 6s 4s 9 11 mph 1026.8mb 39f 39f
10:50am 1ft 6s 4s 7 9 mph 1027.7mb 39f 38f
9:50am 1ft 6s 4s 9
mph
1028.5mb 38f 38f
8:50am 1.3ft 7s 4s 7 9 mph 1028.5mb 38f 37f
7:50am 1.3ft 6s 4s 9 11 mph 1028.1mb 38f 38f
6:50am 1.3ft 7s 4s 11 13 mph 1027.6mb 38f 38f
5:50am 1.3ft 7s 4s 11 13 mph 1027mb 38f 38f
4:50am 1.3ft 3s 3s 11 13 mph 1026.9mb 39f 38f
3:50am 1.6ft 3s 3s 13 16 mph 1026.8mb 38f 38f
2:50am 1.6ft 3s 3s 16 18 mph 1026.4mb 38f 38f
1:50am 1.6ft 3s 3s 13 18 mph 1026.6mb 38f 37f
12:50am 1.6ft 3s 3s 16 20 mph 1026.8mb 38f 37f
Mon 02/20 11:50pm 1.3ft 8s 4s 13 16 mph 1026.4mb 38f 37f
10:50pm 1.3ft 7s 4s 9
mph
1025.9mb 38f 38f
9:50pm 1.3ft 7s 4s 9
mph
1026mb 38f 38f